Time;durP1;ratioP1;P1;durP2;ratioP2;P2;SDS_P1;SDS_P2;PMS_P1;PMS_P2;Temp;Humidity;BMP_temperature;BMP_pressure;BME280_temperature;BME280_humidity;BME280_pressure;Samples;Min_cycle;Max_cycle;Signal;HPM_P1;HPM_P2
2022/08/16 00:03:43;;;;;;;;;;;26.50;38.20;;;;;;8397255;28;19928;-44
2022/08/16 00:07:44;;;;;;;;;;;26.50;38.20;;;;;;8397287;28;19917;-45
2022/08/16 00:11:45;;;;;;;;;;;26.50;38.20;;;;;;8396450;28;20305;-45
2022/08/16 00:15:47;;;;;;;;;;;26.40;38.20;;;;;;8396930;28;19916;-44
2022/08/16 00:19:47;;;;;;;;;;;26.40;38.70;;;;;;8396650;28;19950;-45
2022/08/16 00:23:47;;;;;;;;;;;26.40;38.20;;;;;;8396420;28;20389;-47
2022/08/16 00:27:48;;;;;;;;;;;26.40;38.30;;;;;;8396860;28;19957;-44
2022/08/16 00:31:49;;;;;;;;;;;26.40;38.30;;;;;;8396954;28;19920;-46
2022/08/16 00:35:50;;;;;;;;;;;26.40;38.30;;;;;;8396551;28;20419;-45
2022/08/16 00:39:51;;;;;;;;;;;26.40;38.30;;;;;;8400696;28;19924;-44
2022/08/16 00:43:52;;;;;;;;;;;26.40;38.30;;;;;;8407411;28;19990;-44
2022/08/16 00:47:53;;;;;;;;;;;26.40;38.30;;;;;;8407316;28;20269;-45
2022/08/16 00:51:53;;;;;;;;;;;26.30;38.20;;;;;;8407447;28;20384;-44
2022/08/16 00:55:55;;;;;;;;;;;26.40;38.30;;;;;;8406900;28;19916;-43
2022/08/16 00:59:55;;;;;;;;;;;26.30;38.20;;;;;;8407037;28;20003;-44
2022/08/16 01:03:56;;;;;;;;;;;26.30;38.20;;;;;;8407143;28;19916;-44
2022/08/16 01:07:57;;;;;;;;;;;26.30;38.20;;;;;;8405667;28;20344;-44
2022/08/16 01:11:58;;;;;;;;;;;26.30;38.30;;;;;;8407392;28;19948;-45
2022/08/16 01:16:00;;;;;;;;;;;26.30;38.30;;;;;;8407156;28;20345;-44
2022/08/16 01:20:02;;;;;;;;;;;26.30;38.30;;;;;;8406444;28;19924;-45
2022/08/16 01:24:10;;;;;;;;;;;26.30;38.30;;;;;;8407028;28;20394;-45
2022/08/16 01:28:12;;;;;;;;;;;26.30;38.30;;;;;;8406960;28;19913;-44
2022/08/16 01:32:13;;;;;;;;;;;26.30;38.30;;;;;;8406245;28;20293;-44
2022/08/16 01:36:13;;;;;;;;;;;26.30;38.30;;;;;;8406583;28;19927;-45
2022/08/16 01:40:15;;;;;;;;;;;26.20;38.30;;;;;;8406569;28;20023;-45
2022/08/16 01:44:15;;;;;;;;;;;26.30;38.40;;;;;;8406071;28;19959;-45
2022/08/16 01:48:16;;;;;;;;;;;26.20;38.30;;;;;;8406953;28;19912;-45
2022/08/16 01:52:17;;;;;;;;;;;26.20;38.30;;;;;;8402363;28;19940;-45
2022/08/16 01:56:18;;;;;;;;;;;26.20;38.30;;;;;;8400515;28;19920;-45
2022/08/16 02:00:18;;;;;;;;;;;26.20;38.30;;;;;;8401050;28;20008;-45
2022/08/16 02:04:20;;;;;;;;;;;26.20;38.40;;;;;;8400974;28;19924;-44
2022/08/16 02:08:21;;;;;;;;;;;26.20;38.30;;;;;;8400413;28;19912;-45
2022/08/16 02:12:21;;;;;;;;;;;26.20;38.30;;;;;;8400869;28;19924;-44
2022/08/16 02:16:22;;;;;;;;;;;26.20;38.30;;;;;;8400307;28;19917;-45
2022/08/16 02:20:23;;;;;;;;;;;26.20;38.40;;;;;;8400071;28;19917;-45
2022/08/16 02:24:24;;;;;;;;;;;26.10;38.30;;;;;;8400285;28;19920;-45
2022/08/16 02:28:25;;;;;;;;;;;26.10;38.30;;;;;;8400448;28;19919;-44
2022/08/16 02:32:25;;;;;;;;;;;26.10;38.30;;;;;;8399392;28;19927;-45
2022/08/16 02:36:26;;;;;;;;;;;26.10;38.30;;;;;;8399713;28;19995;-44
2022/08/16 02:40:26;;;;;;;;;;;26.20;38.40;;;;;;8399701;28;19913;-44
2022/08/16 02:44:27;;;;;;;;;;;26.10;38.30;;;;;;8399090;28;19917;-44
2022/08/16 02:48:29;;;;;;;;;;;26.10;38.30;;;;;;8399613;28;19913;-44
2022/08/16 02:52:30;;;;;;;;;;;26.10;38.30;;;;;;8399472;28;20369;-44
2022/08/16 02:56:30;;;;;;;;;;;26.10;38.30;;;;;;8398629;28;19923;-45
2022/08/16 03:00:31;;;;;;;;;;;26.10;38.40;;;;;;8399105;28;19966;-45
2022/08/16 03:04:31;;;;;;;;;;;26.10;38.30;;;;;;8397718;28;19917;-44
2022/08/16 03:08:32;;;;;;;;;;;26.10;38.40;;;;;;8398507;28;19962;-44
2022/08/16 03:12:32;;;;;;;;;;;26.10;38.40;;;;;;8398591;28;19916;-44
2022/08/16 03:16:33;;;;;;;;;;;26.10;38.30;;;;;;8398414;28;19955;-44
2022/08/16 03:20:33;;;;;;;;;;;26.10;38.40;;;;;;8398024;28;20606;-44
2022/08/16 03:24:34;;;;;;;;;;;26.10;38.40;;;;;;8398691;28;20393;-44
2022/08/16 03:28:34;;;;;;;;;;;26.00;38.40;;;;;;8398397;28;19916;-45
2022/08/16 03:32:35;;;;;;;;;;;26.00;38.40;;;;;;8397875;28;19927;-44
2022/08/16 03:36:35;;;;;;;;;;;26.00;38.40;;;;;;8397949;28;19917;-44
2022/08/16 03:40:36;;;;;;;;;;;26.00;38.40;;;;;;8397747;28;19959;-44
2022/08/16 03:44:37;;;;;;;;;;;26.00;38.40;;;;;;8397119;28;19917;-44
2022/08/16 03:48:38;;;;;;;;;;;26.00;38.40;;;;;;8397867;28;19916;-44
2022/08/16 03:52:38;;;;;;;;;;;26.00;38.40;;;;;;8397487;28;20394;-44
2022/08/16 03:56:39;;;;;;;;;;;25.90;38.30;;;;;;8396883;28;19916;-44
2022/08/16 04:00:41;;;;;;;;;;;26.00;38.40;;;;;;8397412;28;19916;-43
2022/08/16 04:04:41;;;;;;;;;;;26.00;38.40;;;;;;8397087;28;19917;-44
2022/08/16 04:08:41;;;;;;;;;;;25.90;38.40;;;;;;8395449;28;19916;-44
2022/08/16 04:12:44;;;;;;;;;;;25.90;38.40;;;;;;8396790;28;20422;-45
2022/08/16 04:16:44;;;;;;;;;;;25.90;38.40;;;;;;8396275;28;20355;-44
2022/08/16 04:20:45;;;;;;;;;;;25.90;38.40;;;;;;8395687;28;19924;-44
2022/08/16 04:24:45;;;;;;;;;;;25.90;38.40;;;;;;8396548;28;19991;-44
2022/08/16 04:28:46;;;;;;;;;;;25.90;38.40;;;;;;8396739;28;19986;-44
2022/08/16 04:32:46;;;;;;;;;;;25.90;38.40;;;;;;8396325;28;20434;-44
2022/08/16 04:36:47;;;;;;;;;;;25.90;38.40;;;;;;8396345;28;19927;-44
2022/08/16 04:40:47;;;;;;;;;;;25.90;38.40;;;;;;8396503;28;19917;-44
2022/08/16 04:44:48;;;;;;;;;;;25.80;38.30;;;;;;8395781;28;19966;-44
2022/08/16 04:48:48;;;;;;;;;;;25.90;38.40;;;;;;8396403;28;20273;-44
2022/08/16 04:52:49;;;;;;;;;;;25.80;38.40;;;;;;8396475;28;19924;-45
2022/08/16 04:56:50;;;;;;;;;;;25.80;38.40;;;;;;8395650;28;20020;-48
2022/08/16 05:00:50;;;;;;;;;;;25.80;38.40;;;;;;8396124;28;19912;-44
2022/08/16 05:04:51;;;;;;;;;;;25.80;38.40;;;;;;8396112;28;19967;-44
2022/08/16 05:08:51;;;;;;;;;;;25.80;38.40;;;;;;8395401;28;20282;-46
2022/08/16 05:12:52;;;;;;;;;;;25.80;38.40;;;;;;8396090;28;19956;-44
2022/08/16 05:16:52;;;;;;;;;;;25.80;38.40;;;;;;8395703;28;19924;-45
2022/08/16 05:20:53;;;;;;;;;;;25.80;38.40;;;;;;8395005;28;20340;-44
2022/08/16 05:24:53;;;;;;;;;;;25.80;38.40;;;;;;8396085;28;19927;-45
2022/08/16 05:28:54;;;;;;;;;;;25.80;38.40;;;;;;8401014;28;19927;-45
2022/08/16 05:32:55;;;;;;;;;;;25.80;38.40;;;;;;8401338;28;19965;-44
2022/08/16 05:36:56;;;;;;;;;;;25.80;38.40;;;;;;8401447;28;20365;-44
2022/08/16 05:40:57;;;;;;;;;;;25.80;38.40;;;;;;8401257;28;19917;-45
2022/08/16 05:44:57;;;;;;;;;;;25.80;38.40;;;;;;8401747;28;20429;-45
2022/08/16 05:48:58;;;;;;;;;;;25.80;38.40;;;;;;8401241;28;19916;-44
2022/08/16 05:52:59;;;;;;;;;;;25.80;38.40;;;;;;8400701;28;19935;-44
2022/08/16 05:56:59;;;;;;;;;;;25.80;38.40;;;;;;8400912;28;19925;-44
2022/08/16 06:00:59;;;;;;;;;;;25.80;38.40;;;;;;8401143;28;19912;-44
2022/08/16 06:05:00;;;;;;;;;;;25.80;38.40;;;;;;8400743;28;20007;-44
2022/08/16 06:09:01;;;;;;;;;;;25.70;38.40;;;;;;8400675;28;19923;-44
2022/08/16 06:13:01;;;;;;;;;;;25.70;38.30;;;;;;8400481;28;20403;-45
2022/08/16 06:17:02;;;;;;;;;;;25.80;38.40;;;;;;8399905;28;19927;-45
2022/08/16 06:21:02;;;;;;;;;;;25.70;38.40;;;;;;8400417;28;20290;-45
2022/08/16 06:25:03;;;;;;;;;;;25.80;38.40;;;;;;8400397;28;20408;-44
2022/08/16 06:29:04;;;;;;;;;;;25.70;38.30;;;;;;8399767;28;20336;-44
2022/08/16 06:33:04;;;;;;;;;;;25.70;38.30;;;;;;8399730;28;19924;-45
2022/08/16 06:37:05;;;;;;;;;;;25.80;38.50;;;;;;8399432;28;19921;-44
2022/08/16 06:41:06;;;;;;;;;;;25.70;38.30;;;;;;8399168;28;19923;-44
2022/08/16 06:45:08;;;;;;;;;;;25.80;38.40;;;;;;8400171;28;20377;-45
2022/08/16 06:49:10;;;;;;;;;;;25.80;38.40;;;;;;8399357;28;19920;-44
2022/08/16 06:53:10;;;;;;;;;;;25.70;38.30;;;;;;8399010;28;19920;-45
2022/08/16 06:57:12;;;;;;;;;;;25.80;38.30;;;;;;8399076;28;19960;-44
2022/08/16 07:01:13;;;;;;;;;;;25.80;38.30;;;;;;8399018;28;19913;-46
2022/08/16 07:05:14;;;;;;;;;;;25.70;38.30;;;;;;8386676;28;19939;-44
2022/08/16 07:09:14;;;;;;;;;;;25.80;38.30;;;;;;8395103;28;19973;-43
2022/08/16 07:13:15;;;;;;;;;;;25.80;38.30;;;;;;8398673;28;19917;-45
2022/08/16 07:17:18;;;;;;;;;;;25.80;38.20;;;;;;8397908;28;19929;-46
2022/08/16 07:21:18;;;;;;;;;;;25.80;38.30;;;;;;8398419;28;19943;-44
2022/08/16 07:25:18;;;;;;;;;;;25.80;38.30;;;;;;8398724;28;19999;-45
2022/08/16 07:29:19;;;;;;;;;;;25.80;38.30;;;;;;8397666;28;19917;-44
2022/08/16 07:33:20;;;;;;;;;;;25.80;38.30;;;;;;8398263;28;19920;-44
2022/08/16 07:37:21;;;;;;;;;;;25.80;38.30;;;;;;8397784;28;19929;-46
2022/08/16 07:41:21;;;;;;;;;;;25.80;38.20;;;;;;8397162;28;19916;-44
2022/08/16 07:45:21;;;;;;;;;;;25.80;38.30;;;;;;8398244;28;19913;-44
2022/08/16 07:49:22;;;;;;;;;;;25.80;38.20;;;;;;8396816;28;19956;-44
2022/08/16 07:53:22;;;;;;;;;;;25.80;38.20;;;;;;8397035;28;19962;-45
2022/08/16 07:57:23;;;;;;;;;;;25.80;38.20;;;;;;8397143;28;19950;-44
2022/08/16 08:01:24;;;;;;;;;;;25.80;38.20;;;;;;8397287;28;21267;-44
2022/08/16 08:05:25;;;;;;;;;;;25.80;38.20;;;;;;8396994;28;19928;-45
2022/08/16 08:09:25;;;;;;;;;;;25.80;38.20;;;;;;8396968;28;19923;-44
2022/08/16 08:13:28;;;;;;;;;;;25.80;38.20;;;;;;8397060;28;19919;-44
2022/08/16 08:17:28;;;;;;;;;;;25.80;38.20;;;;;;8396339;28;19929;-44
2022/08/16 08:21:30;;;;;;;;;;;25.90;38.20;;;;;;8396760;28;20230;-46
2022/08/16 08:25:30;;;;;;;;;;;25.90;38.30;;;;;;8397064;28;19923;-44
2022/08/16 08:29:31;;;;;;;;;;;25.80;38.20;;;;;;8396215;28;19917;-44
2022/08/16 08:33:32;;;;;;;;;;;25.90;38.20;;;;;;8396648;28;19927;-44
2022/08/16 08:37:34;;;;;;;;;;;25.90;38.20;;;;;;8396446;28;19921;-44
2022/08/16 08:41:35;;;;;;;;;;;25.90;38.30;;;;;;8395953;28;19999;-45
2022/08/16 08:45:35;;;;;;;;;;;25.90;38.30;;;;;;8396770;28;19916;-43
2022/08/16 08:49:36;;;;;;;;;;;26.00;38.30;;;;;;8396472;28;19923;-44
2022/08/16 08:53:37;;;;;;;;;;;25.90;38.20;;;;;;8395892;28;19924;-45
2022/08/16 08:57:39;;;;;;;;;;;25.90;38.20;;;;;;8396395;28;19920;-44
2022/08/16 09:01:40;;;;;;;;;;;25.90;38.20;;;;;;8399953;28;19916;-47
2022/08/16 09:05:41;;;;;;;;;;;26.00;38.20;;;;;;8402745;28;20343;-44
2022/08/16 09:09:42;;;;;;;;;;;26.00;38.20;;;;;;8402960;28;19924;-44
2022/08/16 09:13:43;;;;;;;;;;;26.00;38.20;;;;;;8402612;28;19916;-45
2022/08/16 09:17:43;;;;;;;;;;;26.10;38.20;;;;;;8401845;28;20320;-43
2022/08/16 09:21:44;;;;;;;;;;;26.10;38.20;;;;;;8402289;28;19970;-45
2022/08/16 09:25:44;;;;;;;;;;;26.10;38.20;;;;;;8402459;28;20471;-45
2022/08/16 09:29:44;;;;;;;;;;;26.10;38.10;;;;;;8401367;28;19921;-44
2022/08/16 09:33:45;;;;;;;;;;;26.10;38.20;;;;;;8401638;28;20384;-44
2022/08/16 09:37:45;;;;;;;;;;;26.10;38.10;;;;;;8401858;28;20387;-45
2022/08/16 09:41:51;;;;;;;;;;;26.10;38.10;;;;;;8401138;28;19917;-43
2022/08/16 09:45:52;;;;;;;;;;;26.10;38.10;;;;;;8401852;28;19923;-44
2022/08/16 09:49:52;;;;;;;;;;;26.10;38.10;;;;;;8401452;28;19921;-45
2022/08/16 09:53:54;;;;;;;;;;;26.20;38.10;;;;;;8400819;28;19916;-44
2022/08/16 09:57:54;;;;;;;;;;;26.20;38.10;;;;;;8401306;28;20444;-45
2022/08/16 10:01:55;;;;;;;;;;;26.20;38.00;;;;;;8400644;28;19916;-45
2022/08/16 10:05:55;;;;;;;;;;;26.20;38.00;;;;;;8399851;28;19912;-44
2022/08/16 10:09:56;;;;;;;;;;;26.20;38.00;;;;;;8400760;28;19943;-45
2022/08/16 10:13:56;;;;;;;;;;;26.20;38.00;;;;;;8383563;28;19920;-44
2022/08/16 10:17:57;;;;;;;;;;;26.30;38.00;;;;;;8400409;28;19935;-45
2022/08/16 10:21:58;;;;;;;;;;;26.30;38.00;;;;;;8400667;28;20003;-44
2022/08/16 10:25:59;;;;;;;;;;;26.30;37.90;;;;;;8400083;28;20285;-44
2022/08/16 10:30:00;;;;;;;;;;;26.30;38.00;;;;;;8400158;28;20002;-44
2022/08/16 10:34:01;;;;;;;;;;;26.40;38.00;;;;;;8400387;28;20289;-46
2022/08/16 10:38:02;;;;;;;;;;;26.40;37.90;;;;;;8399391;28;19924;-44
2022/08/16 10:42:02;;;;;;;;;;;26.40;37.90;;;;;;8400272;28;20346;-44
2022/08/16 10:46:04;;;;;;;;;;;26.40;37.90;;;;;;8399625;28;19948;-45
2022/08/16 10:50:05;;;;;;;;;;;26.50;37.90;;;;;;8399088;28;19974;-44
2022/08/16 10:54:06;;;;;;;;;;;26.50;37.80;;;;;;8399395;28;19923;-44
2022/08/16 10:58:10;;;;;;;;;;;26.50;37.80;;;;;;8399372;28;20313;-44
2022/08/16 11:02:10;;;;;;;;;;;26.50;37.80;;;;;;8398958;28;19999;-44
2022/08/16 11:06:11;;;;;;;;;;;26.50;37.70;;;;;;8399339;28;19920;-44
2022/08/16 11:10:13;;;;;;;;;;;26.50;37.70;;;;;;8398899;28;19977;-45
2022/08/16 11:14:13;;;;;;;;;;;26.50;37.70;;;;;;8398382;28;19923;-45
2022/08/16 11:18:13;;;;;;;;;;;26.60;37.80;;;;;;8398502;28;19964;-45
2022/08/16 11:22:14;;;;;;;;;;;26.60;37.70;;;;;;8398664;28;20369;-45
2022/08/16 11:26:14;;;;;;;;;;;26.60;37.70;;;;;;8396945;28;19916;-45
2022/08/16 11:30:15;;;;;;;;;;;26.60;37.70;;;;;;8398157;28;19916;-45
2022/08/16 11:34:16;;;;;;;;;;;26.60;37.70;;;;;;8398047;28;19920;-45
2022/08/16 11:38:18;;;;;;;;;;;26.60;37.60;;;;;;8397500;28;19924;-45
2022/08/16 11:42:18;;;;;;;;;;;26.60;38.20;;;;;;8398151;28;20373;-45
2022/08/16 11:46:19;;;;;;;;;;;26.70;37.70;;;;;;8397644;28;19923;-45
2022/08/16 11:50:20;;;;;;;;;;;26.70;37.70;;;;;;8397203;28;19948;-46
2022/08/16 11:54:21;;;;;;;;;;;26.70;37.60;;;;;;8397530;28;20293;-45
2022/08/16 11:58:24;;;;;;;;;;;26.70;37.60;;;;;;8397621;28;19935;-44
2022/08/16 12:02:24;;;;;;;;;;;26.80;37.70;;;;;;8397053;28;19950;-45
2022/08/16 12:06:25;;;;;;;;;;;26.80;37.70;;;;;;8397582;28;19923;-45
2022/08/16 12:10:26;;;;;;;;;;;26.80;37.60;;;;;;8397102;28;20454;-46
2022/08/16 12:14:26;;;;;;;;;;;26.80;37.60;;;;;;8396506;28;20038;-45
2022/08/16 12:18:27;;;;;;;;;;;26.80;37.60;;;;;;8396637;28;20258;-46
2022/08/16 12:22:28;;;;;;;;;;;26.80;37.50;;;;;;8396886;28;20365;-45
2022/08/16 12:26:28;;;;;;;;;;;26.80;37.50;;;;;;8396180;28;20317;-45
2022/08/16 12:30:30;;;;;;;;;;;26.90;37.50;;;;;;8396688;28;20376;-45
2022/08/16 12:34:31;;;;;;;;;;;26.90;37.50;;;;;;8396242;28;19920;-46
2022/08/16 12:38:31;;;;;;;;;;;26.90;37.50;;;;;;8395897;28;19932;-45
2022/08/16 12:42:33;;;;;;;;;;;26.90;37.40;;;;;;8396559;28;19974;-45
2022/08/16 12:46:33;;;;;;;;;;;26.90;37.40;;;;;;8396399;28;19916;-45
2022/08/16 12:50:34;;;;;;;;;;;27.00;37.40;;;;;;8395791;28;19967;-45
2022/08/16 12:54:36;;;;;;;;;;;27.00;37.30;;;;;;8396317;28;19925;-45
2022/08/16 12:58:37;;;;;;;;;;;27.00;37.30;;;;;;8396211;28;20358;-47
2022/08/16 13:02:39;;;;;;;;;;;27.10;37.30;;;;;;8395729;28;19948;-46
2022/08/16 13:06:40;;;;;;;;;;;27.10;37.30;;;;;;8396093;28;19917;-45
2022/08/16 13:10:46;;;;;;;;;;;27.10;37.20;;;;;;8395087;28;19939;-46
2022/08/16 13:14:47;;;;;;;;;;;27.10;37.30;;;;;;8395553;28;19917;-45
2022/08/16 13:18:47;;;;;;;;;;;27.10;37.20;;;;;;8395814;28;19925;-45
2022/08/16 13:22:50;;;;;;;;;;;27.10;37.20;;;;;;8396036;28;20388;-46
2022/08/16 13:26:51;;;;;;;;;;;27.10;37.20;;;;;;8395294;28;19924;-46
2022/08/16 13:30:53;;;;;;;;;;;27.20;37.20;;;;;;8395702;28;20378;-45
2022/08/16 13:34:53;;;;;;;;;;;27.20;37.20;;;;;;8395691;28;19948;-45
2022/08/16 13:38:54;;;;;;;;;;;27.20;37.20;;;;;;8394987;28;19931;-45
2022/08/16 13:42:54;;;;;;;;;;;27.20;37.20;;;;;;8395768;28;20365;-46
2022/08/16 13:46:56;;;;;;;;;;;27.20;37.20;;;;;;8395897;28;19974;-44
2022/08/16 13:50:57;;;;;;;;;;;27.20;37.20;;;;;;8401407;28;19923;-45
2022/08/16 13:54:57;;;;;;;;;;;27.20;37.10;;;;;;8401509;28;19921;-45
2022/08/16 13:58:57;;;;;;;;;;;27.20;37.10;;;;;;8400692;28;19924;-44
2022/08/16 14:02:58;;;;;;;;;;;27.20;37.10;;;;;;8401405;28;19912;-45
2022/08/16 14:07:00;;;;;;;;;;;27.30;37.20;;;;;;8400836;28;19916;-45
2022/08/16 14:11:00;;;;;;;;;;;27.30;37.20;;;;;;8400441;28;19923;-44
2022/08/16 14:15:02;;;;;;;;;;;27.30;37.10;;;;;;8400661;28;20274;-45
2022/08/16 14:19:03;;;;;;;;;;;27.30;37.10;;;;;;8400743;28;19924;-45
2022/08/16 14:23:04;;;;;;;;;;;27.30;37.10;;;;;;8400270;28;20288;-45
2022/08/16 14:27:05;;;;;;;;;;;27.30;37.10;;;;;;8400207;28;20283;-45
2022/08/16 14:31:05;;;;;;;;;;;27.30;37.10;;;;;;8399994;28;20020;-46
2022/08/16 14:35:12;;;;;;;;;;;27.30;37.00;;;;;;8399487;28;20439;-46
2022/08/16 14:39:12;;;;;;;;;;;27.30;37.00;;;;;;8400109;28;19924;-46
2022/08/16 14:43:13;;;;;;;;;;;27.30;37.00;;;;;;8400008;28;19913;-46
2022/08/16 14:47:14;;;;;;;;;;;27.30;37.00;;;;;;8399295;28;19916;-45
2022/08/16 14:51:14;;;;;;;;;;;27.30;37.00;;;;;;8399448;28;19921;-45
2022/08/16 14:55:15;;;;;;;;;;;27.30;37.00;;;;;;8399324;28;19921;-46
2022/08/16 14:59:15;;;;;;;;;;;27.40;37.00;;;;;;8398446;28;20033;-45
2022/08/16 15:03:16;;;;;;;;;;;27.30;37.00;;;;;;8399385;28;19919;-45
2022/08/16 15:07:19;;;;;;;;;;;27.40;37.00;;;;;;8398963;28;19939;-45
2022/08/16 15:11:19;;;;;;;;;;;27.40;37.00;;;;;;8398257;28;20003;-45
2022/08/16 15:15:20;;;;;;;;;;;27.40;37.00;;;;;;8398690;28;19924;-45
2022/08/16 15:19:22;;;;;;;;;;;27.40;37.00;;;;;;8398526;28;19939;-45
2022/08/16 15:23:24;;;;;;;;;;;27.40;37.00;;;;;;8398245;28;19912;-46
2022/08/16 15:27:26;;;;;;;;;;;27.40;37.00;;;;;;8398273;28;19917;-46
2022/08/16 15:31:26;;;;;;;;;;;27.40;37.00;;;;;;8398268;28;19927;-45
2022/08/16 15:35:27;;;;;;;;;;;27.40;37.00;;;;;;8397700;28;19917;-45
2022/08/16 15:39:27;;;;;;;;;;;27.40;37.00;;;;;;8398101;28;19933;-45
2022/08/16 15:43:28;;;;;;;;;;;27.40;36.90;;;;;;8397983;28;19912;-45
2022/08/16 15:47:31;;;;;;;;;;;27.40;36.90;;;;;;8397086;28;19921;-45
2022/08/16 15:51:32;;;;;;;;;;;27.40;36.90;;;;;;8397528;28;19962;-46
2022/08/16 15:55:32;;;;;;;;;;;27.40;36.90;;;;;;8397733;28;19924;-47
2022/08/16 15:59:33;;;;;;;;;;;27.40;36.90;;;;;;8396847;28;20374;-45
2022/08/16 16:03:35;;;;;;;;;;;27.40;36.90;;;;;;8397171;28;20253;-45
2022/08/16 16:07:36;;;;;;;;;;;27.40;36.90;;;;;;8396864;28;20293;-45
2022/08/16 16:11:37;;;;;;;;;;;27.40;36.90;;;;;;8394834;28;19923;-45
2022/08/16 16:15:40;;;;;;;;;;;27.40;36.90;;;;;;8396823;28;20258;-46
2022/08/16 16:19:40;;;;;;;;;;;27.40;36.90;;;;;;8396841;28;20340;-45
2022/08/16 16:23:43;;;;;;;;;;;27.50;36.90;;;;;;8396888;28;20005;-45
2022/08/16 16:27:45;;;;;;;;;;;27.50;36.90;;;;;;8396846;28;19939;-45
2022/08/16 16:31:45;;;;;;;;;;;27.50;36.90;;;;;;8396928;28;19936;-45
2022/08/16 16:35:46;;;;;;;;;;;27.40;36.80;;;;;;8396467;28;19916;-45
2022/08/16 16:39:46;;;;;;;;;;;27.50;36.90;;;;;;8396306;28;19920;-45
2022/08/16 16:43:48;;;;;;;;;;;27.40;36.80;;;;;;8396550;28;20328;-45
2022/08/16 16:47:48;;;;;;;;;;;27.40;36.80;;;;;;8395901;28;19963;-45
2022/08/16 16:51:50;;;;;;;;;;;27.40;36.80;;;;;;8396457;28;20431;-46
2022/08/16 16:55:51;;;;;;;;;;;27.50;36.90;;;;;;8396465;28;20007;-45
2022/08/16 16:59:51;;;;;;;;;;;27.40;36.80;;;;;;8395755;28;19920;-48
2022/08/16 17:03:52;;;;;;;;;;;27.40;36.80;;;;;;8396291;28;19920;-46
2022/08/16 17:07:52;;;;;;;;;;;27.50;36.90;;;;;;8396024;28;19962;-46
2022/08/16 17:11:52;;;;;;;;;;;27.40;36.80;;;;;;8395482;28;19947;-44
2022/08/16 17:15:53;;;;;;;;;;;27.40;36.80;;;;;;8395965;28;20377;-45
2022/08/16 17:19:54;;;;;;;;;;;27.40;36.80;;;;;;8395636;28;19979;-46
2022/08/16 17:23:54;;;;;;;;;;;27.50;36.90;;;;;;8399581;28;19919;-44
2022/08/16 17:27:54;;;;;;;;;;;27.50;36.90;;;;;;8402100;28;19920;-45
2022/08/16 17:31:55;;;;;;;;;;;27.40;36.80;;;;;;8401611;28;19932;-43
2022/08/16 17:35:56;;;;;;;;;;;27.40;36.80;;;;;;8401790;28;19916;-44
2022/08/16 17:39:57;;;;;;;;;;;27.40;36.90;;;;;;8401825;28;19978;-44
2022/08/16 17:43:57;;;;;;;;;;;27.40;36.80;;;;;;8401434;28;19913;-46
2022/08/16 17:47:58;;;;;;;;;;;27.40;36.80;;;;;;8401770;28;20416;-47
2022/08/16 17:51:58;;;;;;;;;;;27.40;36.80;;;;;;8401351;28;19923;-45
2022/08/16 17:55:59;;;;;;;;;;;27.40;36.80;;;;;;8400875;28;20414;-45
2022/08/16 18:00:00;;;;;;;;;;;27.40;36.80;;;;;;8401128;28;19921;-46
2022/08/16 18:04:01;;;;;;;;;;;27.40;36.80;;;;;;8399710;28;20304;-45
2022/08/16 18:08:01;;;;;;;;;;;27.40;36.80;;;;;;8400420;28;19917;-45
2022/08/16 18:12:15;;;;;;;;;;;27.40;36.80;;;;;;8400991;28;19979;-46
2022/08/16 18:16:16;;;;;;;;;;;27.40;36.80;;;;;;8400831;28;19920;-46
2022/08/16 18:24:36;;;;;;;;;;;27.40;36.80;;;;;;8401756;28;19924;-45
2022/08/16 18:28:37;;;;;;;;;;;27.40;36.90;;;;;;8400313;28;19923;-45
2022/08/16 18:32:46;;;;;;;;;;;27.40;36.90;;;;;;8399329;28;19924;-45
2022/08/16 18:36:46;;;;;;;;;;;27.30;36.80;;;;;;8399871;28;19966;-46
2022/08/16 18:40:49;;;;;;;;;;;27.30;36.80;;;;;;8399743;28;20346;-46
2022/08/16 18:44:49;;;;;;;;;;;27.30;36.90;;;;;;8398857;28;20366;-45
2022/08/16 18:48:49;;;;;;;;;;;27.30;36.80;;;;;;8399522;28;19920;-45
2022/08/16 18:53:00;;;;;;;;;;;27.30;36.80;;;;;;8399350;28;19913;-46
2022/08/16 18:57:00;;;;;;;;;;;27.30;36.80;;;;;;8398923;28;20289;-46
2022/08/16 19:01:01;;;;;;;;;;;27.30;36.90;;;;;;8399352;28;20015;-45
2022/08/16 19:05:01;;;;;;;;;;;27.30;36.80;;;;;;8397730;28;19919;-45
2022/08/16 19:09:02;;;;;;;;;;;27.30;36.90;;;;;;8398809;28;20488;-44
2022/08/16 19:13:04;;;;;;;;;;;27.30;36.90;;;;;;8398740;28;19931;-46
2022/08/16 19:17:04;;;;;;;;;;;27.30;36.90;;;;;;8398283;28;19916;-45
2022/08/16 19:21:05;;;;;;;;;;;27.30;36.90;;;;;;8398374;28;19920;-45
2022/08/16 19:25:06;;;;;;;;;;;27.30;36.90;;;;;;8398523;28;20297;-45
2022/08/16 19:29:06;;;;;;;;;;;27.30;36.90;;;;;;8397874;28;19939;-45
2022/08/16 19:33:07;;;;;;;;;;;27.30;36.90;;;;;;8398164;28;19966;-45
2022/08/16 19:37:08;;;;;;;;;;;27.30;36.90;;;;;;8397914;28;19920;-45
2022/08/16 19:41:08;;;;;;;;;;;27.30;36.90;;;;;;8397313;28;20392;-45
2022/08/16 19:45:11;;;;;;;;;;;27.30;36.90;;;;;;8397497;28;19920;-45
2022/08/16 19:49:13;;;;;;;;;;;27.30;36.90;;;;;;8397043;28;21278;-46
2022/08/16 19:53:15;;;;;;;;;;;27.30;36.90;;;;;;8397092;28;19932;-45
2022/08/16 19:57:16;;;;;;;;;;;27.30;36.80;;;;;;8397487;28;19921;-45
2022/08/16 20:01:16;;;;;;;;;;;27.30;36.80;;;;;;8397539;28;19912;-45
2022/08/16 20:05:18;;;;;;;;;;;27.20;36.80;;;;;;8397056;28;19917;-44
2022/08/16 20:09:20;;;;;;;;;;;27.20;36.80;;;;;;8397321;28;19917;-46
2022/08/16 20:13:22;;;;;;;;;;;27.30;36.80;;;;;;8397001;28;19920;-45
2022/08/16 20:17:22;;;;;;;;;;;27.20;36.80;;;;;;8396390;28;19928;-46
2022/08/16 20:21:23;;;;;;;;;;;27.30;36.90;;;;;;8396816;28;19919;-44
2022/08/16 20:25:25;;;;;;;;;;;27.20;36.70;;;;;;8396997;28;19924;-46
2022/08/16 20:29:26;;;;;;;;;;;27.20;36.80;;;;;;8396207;28;19917;-45
2022/08/16 20:33:26;;;;;;;;;;;27.20;36.80;;;;;;8396557;28;19928;-45
2022/08/16 20:37:27;;;;;;;;;;;27.20;36.70;;;;;;8396509;28;20407;-45
2022/08/16 20:41:28;;;;;;;;;;;27.20;36.70;;;;;;8396013;28;19920;-45
2022/08/16 20:45:28;;;;;;;;;;;27.20;36.70;;;;;;8396866;28;19939;-45
2022/08/16 20:49:29;;;;;;;;;;;27.20;36.80;;;;;;8396467;28;20263;-46
2022/08/16 20:53:29;;;;;;;;;;;27.20;36.70;;;;;;8395849;28;19916;-46
2022/08/16 20:57:30;;;;;;;;;;;27.20;36.70;;;;;;8399863;28;19927;-46
2022/08/16 21:01:30;;;;;;;;;;;27.20;36.80;;;;;;8403061;28;20355;-45
2022/08/16 21:05:31;;;;;;;;;;;27.20;36.70;;;;;;8402768;28;20365;-45
2022/08/16 21:09:32;;;;;;;;;;;27.20;36.80;;;;;;8402800;28;19917;-45
2022/08/16 21:13:33;;;;;;;;;;;27.20;36.80;;;;;;8402639;28;20011;-45
2022/08/16 21:17:33;;;;;;;;;;;27.20;36.70;;;;;;8402071;28;19998;-45
2022/08/16 21:21:34;;;;;;;;;;;27.10;36.70;;;;;;8402441;28;19914;-45
2022/08/16 21:25:35;;;;;;;;;;;27.10;36.70;;;;;;8402667;28;20391;-45
2022/08/16 21:29:37;;;;;;;;;;;27.10;36.70;;;;;;8401696;28;20377;-45
2022/08/16 21:33:37;;;;;;;;;;;27.10;36.70;;;;;;8402317;28;19920;-46
2022/08/16 21:37:38;;;;;;;;;;;27.10;36.70;;;;;;8401939;28;19923;-46
2022/08/16 21:41:38;;;;;;;;;;;27.10;36.70;;;;;;8401332;28;19917;-45
2022/08/16 21:45:40;;;;;;;;;;;27.10;36.70;;;;;;8401924;28;19917;-46
2022/08/16 21:49:41;;;;;;;;;;;27.20;36.80;;;;;;8402082;28;19917;-45
2022/08/16 21:53:41;;;;;;;;;;;27.10;36.80;;;;;;8400963;28;19962;-46
2022/08/16 21:57:42;;;;;;;;;;;27.10;36.80;;;;;;8401436;28;19963;-45
2022/08/16 22:01:42;;;;;;;;;;;27.10;36.80;;;;;;8392432;28;19937;-45
2022/08/16 22:05:44;;;;;;;;;;;27.10;36.80;;;;;;8368270;28;20278;-46
2022/08/16 22:09:45;;;;;;;;;;;27.10;36.80;;;;;;8391978;28;19916;-46
2022/08/16 22:13:45;;;;;;;;;;;27.00;36.70;;;;;;8400864;28;19944;-45
2022/08/16 22:17:46;;;;;;;;;;;27.00;36.70;;;;;;8400034;28;19929;-45
2022/08/16 22:21:46;;;;;;;;;;;27.10;36.80;;;;;;8400770;28;19958;-46
2022/08/16 22:25:47;;;;;;;;;;;27.10;36.80;;;;;;8400466;28;19939;-46
2022/08/16 22:29:48;;;;;;;;;;;27.00;36.80;;;;;;8399856;28;19966;-45
2022/08/16 22:33:48;;;;;;;;;;;27.00;36.80;;;;;;8400465;28;19920;-46
2022/08/16 22:37:49;;;;;;;;;;;27.00;37.30;;;;;;8400131;28;20404;-45
2022/08/16 22:41:49;;;;;;;;;;;27.00;36.80;;;;;;8399731;28;19921;-45
2022/08/16 22:45:50;;;;;;;;;;;27.00;36.80;;;;;;8400183;28;19917;-44
2022/08/16 22:49:50;;;;;;;;;;;27.00;36.80;;;;;;8399799;28;19943;-44
2022/08/16 22:53:51;;;;;;;;;;;27.00;36.80;;;;;;8399178;28;19923;-47
2022/08/16 22:57:52;;;;;;;;;;;27.00;36.80;;;;;;8399643;28;19920;-45
2022/08/16 23:01:53;;;;;;;;;;;27.00;36.80;;;;;;8399527;28;19920;-46
2022/08/16 23:05:55;;;;;;;;;;;27.00;36.80;;;;;;8398751;28;19916;-44
2022/08/16 23:09:55;;;;;;;;;;;27.00;36.90;;;;;;8399125;28;20210;-45
2022/08/16 23:13:56;;;;;;;;;;;26.90;36.80;;;;;;8398426;28;19916;-45
2022/08/16 23:17:57;;;;;;;;;;;26.90;36.80;;;;;;8398881;28;19956;-45
2022/08/16 23:21:57;;;;;;;;;;;26.90;36.80;;;;;;8399051;28;19923;-44
2022/08/16 23:25:58;;;;;;;;;;;26.90;36.80;;;;;;8398153;28;19923;-44